Time;durP1;ratioP1;P1;durP2;ratioP2;P2;SDS_P1;SDS_P2;PMS_P1;PMS_P2;Temp;Humidity;BMP_temperature;BMP_pressure;BME280_temperature;BME280_humidity;BME280_pressure;Samples;Min_cycle;Max_cycle;Signal;HPM_P1;HPM_P2
2024/03/17 00:02:08;;;;;;;6.67;3.63;;;;;;;6.52;100.00;102226.22;7715777;23;20219;-67
2024/03/17 00:05:29;;;;;;;7.70;3.70;;;;;;;6.25;100.00;102232.00;7730476;23;20203;-66
2024/03/17 00:08:50;;;;;;;13.47;4.10;;;;;;;6.27;100.00;102238.16;7741836;23;20445;-67
2024/03/17 00:12:11;;;;;;;21.57;5.33;;;;;;;6.25;100.00;102242.72;7734715;23;20219;-67
2024/03/17 00:15:33;;;;;;;12.47;4.77;;;;;;;6.00;100.00;102238.63;7732092;23;20481;-67
2024/03/17 00:18:55;;;;;;;11.03;4.40;;;;;;;6.07;100.00;102251.63;7739325;23;20640;-66
2024/03/17 00:22:15;;;;;;;10.53;4.90;;;;;;;6.22;100.00;102260.72;7730410;23;20211;-66
2024/03/17 00:25:36;;;;;;;7.77;5.20;;;;;;;6.24;100.00;102261.50;7733784;23;20215;-67
2024/03/17 00:28:57;;;;;;;10.73;4.00;;;;;;;6.28;100.00;102263.97;7742531;23;20562;-66
2024/03/17 00:32:19;;;;;;;14.67;4.93;;;;;;;6.34;100.00;102260.16;7701238;23;20562;-67
2024/03/17 00:35:40;;;;;;;9.93;4.03;;;;;;;6.34;100.00;102261.00;7730859;23;20252;-66
2024/03/17 00:39:01;;;;;;;13.83;5.00;;;;;;;6.38;100.00;102253.69;7740000;23;20218;-65
2024/03/17 00:42:23;;;;;;;13.93;4.43;;;;;;;6.35;100.00;102264.53;7734454;23;20556;-65
2024/03/17 00:45:43;;;;;;;12.83;4.57;;;;;;;6.33;100.00;102259.28;7734030;23;20214;-68
2024/03/17 00:49:06;;;;;;;11.40;4.23;;;;;;;6.33;100.00;102267.31;7738405;23;20253;-67
2024/03/17 00:52:27;;;;;;;15.53;4.13;;;;;;;6.37;100.00;102270.69;7733010;23;20211;-66
2024/03/17 00:55:51;;;;;;;10.40;4.90;;;;;;;6.04;100.00;102283.91;7730878;23;20526;-66
2024/03/17 00:59:12;;;;;;;13.17;4.33;;;;;;;6.13;100.00;102270.06;7741771;23;20211;-65
2024/03/17 01:02:33;;;;;;;10.67;3.33;;;;;;;6.12;100.00;102273.69;7720285;23;21668;-66
2024/03/17 01:05:55;;;;;;;9.00;4.33;;;;;;;6.38;100.00;102275.97;7731090;23;20226;-66
2024/03/17 01:09:16;;;;;;;9.27;4.13;;;;;;;6.53;100.00;102279.69;7740996;23;20231;-65
2024/03/17 01:12:37;;;;;;;7.60;3.57;;;;;;;6.49;100.00;102282.63;7731767;23;20215;-68
2024/03/17 01:15:58;;;;;;;15.20;4.30;;;;;;;6.62;100.00;102276.56;7725126;23;20207;-66
2024/03/17 01:19:18;;;;;;;9.10;3.67;;;;;;;6.56;100.00;102274.22;7735490;23;20206;-67
2024/03/17 01:22:40;;;;;;;17.67;5.33;;;;;;;6.43;100.00;102270.38;7732233;23;20584;-66
2024/03/17 01:26:01;;;;;;;11.67;4.90;;;;;;;6.39;100.00;102272.38;7734076;23;20207;-66
2024/03/17 01:29:22;;;;;;;11.37;3.23;;;;;;;6.55;100.00;102283.16;7741620;23;20219;-66
2024/03/17 01:32:42;;;;;;;7.73;3.73;;;;;;;6.47;100.00;102275.53;7731282;23;20214;-66
2024/03/17 01:36:03;;;;;;;17.43;4.33;;;;;;;6.49;100.00;102278.13;7690599;23;20219;-67
2024/03/17 01:39:25;;;;;;;12.00;3.63;;;;;;;6.39;100.00;102276.84;7740754;23;20215;-66
2024/03/17 01:42:46;;;;;;;9.13;4.27;;;;;;;6.27;100.00;102275.66;7731397;23;20211;-67
2024/03/17 01:46:11;;;;;;;7.67;3.43;;;;;;;6.30;100.00;102275.47;7728104;23;20304;-66
2024/03/17 01:49:32;;;;;;;10.67;4.30;;;;;;;6.21;100.00;102275.94;7740057;23;20214;-66
2024/03/17 01:52:53;;;;;;;13.37;5.03;;;;;;;6.12;100.00;102272.81;7735255;23;20219;-66
2024/03/17 01:56:17;;;;;;;11.27;3.80;;;;;;;6.03;100.00;102276.81;7736919;23;20476;-66
2024/03/17 01:59:37;;;;;;;8.77;3.50;;;;;;;6.11;100.00;102271.94;7742691;23;20211;-67
2024/03/17 02:02:58;;;;;;;20.97;5.47;;;;;;;6.06;100.00;102284.69;7735067;23;20219;-66
2024/03/17 02:06:19;;;;;;;8.97;4.77;;;;;;;5.94;100.00;102282.63;7734806;23;20294;-66
2024/03/17 02:09:40;;;;;;;20.10;5.20;;;;;;;6.06;100.00;102278.47;7742199;23;20211;-68
2024/03/17 02:13:03;;;;;;;12.53;4.33;;;;;;;6.02;100.00;102272.41;7732768;23;20219;-66
2024/03/17 02:16:25;;;;;;;7.93;3.77;;;;;;;6.15;100.00;102276.22;7735325;23;20215;-67
2024/03/17 02:19:45;;;;;;;14.00;3.83;;;;;;;6.20;100.00;102284.03;7739876;23;20211;-67
2024/03/17 02:23:07;;;;;;;9.30;3.97;;;;;;;6.34;100.00;102279.75;7737971;23;20211;-66
2024/03/17 02:26:28;;;;;;;8.30;3.73;;;;;;;6.18;100.00;102281.44;7736527;23;20892;-66
2024/03/17 02:30:14;;;;;;;18.63;4.33;;;;;;;6.33;100.00;102280.69;7742703;23;20215;-67
2024/03/17 02:33:34;;;;;;;18.93;4.97;;;;;;;6.45;100.00;102277.41;7737643;23;20215;-66
2024/03/17 02:36:55;;;;;;;10.50;4.53;;;;;;;6.52;100.00;102283.34;7733627;23;20298;-66
2024/03/17 02:40:17;;;;;;;10.20;3.87;;;;;;;6.38;100.00;102284.00;7736263;23;20265;-66
2024/03/17 02:43:38;;;;;;;15.27;4.53;;;;;;;6.23;100.00;102289.25;7742374;23;20896;-67
2024/03/17 02:47:00;;;;;;;9.83;4.40;;;;;;;6.13;100.00;102296.00;7727040;23;20537;-67
2024/03/17 02:50:21;;;;;;;7.43;4.73;;;;;;;6.05;100.00;102292.81;7733652;23;20399;-66
2024/03/17 02:53:42;;;;;;;12.17;3.80;;;;;;;5.76;100.00;102295.94;7740802;23;20203;-69
2024/03/17 02:57:07;;;;;;;10.10;4.53;;;;;;;5.85;100.00;102295.53;7732897;23;20215;-67
2024/03/17 03:00:29;;;;;;;8.20;3.33;;;;;;;5.92;100.00;102289.84;7730174;23;20252;-66
2024/03/17 03:03:50;;;;;;;5.40;2.80;;;;;;;5.90;100.00;102291.72;7739142;23;20219;-67
2024/03/17 03:07:11;;;;;;;20.50;5.97;;;;;;;5.86;100.00;102290.09;7734297;23;20846;-67
2024/03/17 03:10:31;;;;;;;6.47;3.03;;;;;;;5.85;100.00;102291.06;7734330;23;20290;-67
2024/03/17 03:13:54;;;;;;;11.80;4.60;;;;;;;5.85;100.00;102290.19;7743086;23;20241;-66
2024/03/17 03:17:15;;;;;;;6.60;3.33;;;;;;;5.88;100.00;102293.59;7727928;23;20214;-67
2024/03/17 03:20:36;;;;;;;8.47;4.27;;;;;;;5.83;100.00;102292.91;7735932;23;20218;-66
2024/03/17 03:23:57;;;;;;;11.37;4.70;;;;;;;5.71;100.00;102292.59;7742074;23;20207;-67
2024/03/17 03:27:18;;;;;;;8.40;4.03;;;;;;;5.76;100.00;102291.44;7734024;23;20214;-67
2024/03/17 03:30:41;;;;;;;8.20;4.07;;;;;;;5.77;100.00;102289.66;7736871;23;20736;-67
2024/03/17 03:34:02;;;;;;;14.37;4.73;;;;;;;5.78;100.00;102294.06;7725177;23;20219;-67
2024/03/17 03:37:27;;;;;;;9.37;3.40;;;;;;;5.79;100.00;102294.00;7702411;23;20211;-67
2024/03/17 03:40:52;;;;;;;7.97;3.47;;;;;;;5.62;100.00;102302.78;7687764;23;20211;-67
2024/03/17 03:44:16;;;;;;;7.13;3.57;;;;;;;5.63;100.00;102311.69;7731438;23;20457;-66
2024/03/17 03:47:39;;;;;;;9.90;3.70;;;;;;;5.68;100.00;102301.63;7725566;23;20211;-66
2024/03/17 03:51:00;;;;;;;9.47;4.57;;;;;;;5.64;100.00;102310.75;7732663;23;20227;-67
2024/03/17 03:54:25;;;;;;;9.00;4.00;;;;;;;5.64;100.00;102308.06;7742628;23;24014;-67
2024/03/17 03:57:47;;;;;;;16.93;4.27;;;;;;;5.55;100.00;102304.00;7735825;23;20214;-67
2024/03/17 04:01:11;;;;;;;8.47;3.77;;;;;;;5.44;100.00;102300.09;7728144;23;20294;-67
2024/03/17 04:04:33;;;;;;;8.03;4.13;;;;;;;5.47;100.00;102302.59;7739737;23;20227;-66
2024/03/17 04:07:54;;;;;;;7.53;3.77;;;;;;;5.42;100.00;102288.59;7734814;23;20206;-66
2024/03/17 04:11:15;;;;;;;9.60;4.20;;;;;;;5.46;100.00;102298.22;7734301;23;20219;-67
2024/03/17 04:14:36;;;;;;;5.83;4.07;;;;;;;5.69;100.00;102306.06;7742015;23;20628;-67
2024/03/17 04:17:57;;;;;;;8.67;4.10;;;;;;;5.70;100.00;102299.75;7734094;23;20295;-67
2024/03/17 04:21:21;;;;;;;8.27;3.87;;;;;;;5.71;100.00;102301.50;7715861;23;20236;-67
2024/03/17 04:24:45;;;;;;;5.70;3.63;;;;;;;5.78;100.00;102304.78;7741781;23;20211;-65
2024/03/17 04:28:05;;;;;;;13.63;4.87;;;;;;;5.84;100.00;102307.19;7708949;23;20211;-67
2024/03/17 04:31:27;;;;;;;9.87;6.53;;;;;;;5.99;100.00;102310.00;7725824;23;20219;-67
2024/03/17 04:34:48;;;;;;;9.70;3.27;;;;;;;6.04;100.00;102312.47;7739847;23;20207;-65
2024/03/17 04:38:11;;;;;;;11.67;4.83;;;;;;;5.73;100.00;102322.81;7738486;23;20202;-67
2024/03/17 04:41:32;;;;;;;18.93;3.93;;;;;;;5.93;100.00;102314.78;7733975;23;20302;-66
2024/03/17 04:44:54;;;;;;;5.90;3.47;;;;;;;6.12;100.00;102315.66;7740850;23;21063;-67
2024/03/17 04:48:15;;;;;;;9.57;4.23;;;;;;;6.25;100.00;102315.00;7713075;23;20218;-67
2024/03/17 04:51:36;;;;;;;14.20;4.20;;;;;;;6.13;100.00;102301.34;7732408;23;20576;-67
2024/03/17 04:54:58;;;;;;;12.87;3.53;;;;;;;6.05;100.00;102311.56;7741372;23;20207;-67
2024/03/17 04:58:19;;;;;;;8.43;4.90;;;;;;;6.06;100.00;102322.19;7739900;23;20211;-65
2024/03/17 05:01:40;;;;;;;8.30;4.17;;;;;;;6.05;100.00;102319.59;7720566;23;20214;-66
2024/03/17 05:05:05;;;;;;;14.63;5.40;;;;;;;6.15;100.00;102327.06;7738409;23;20215;-67
2024/03/17 05:08:26;;;;;;;9.67;4.80;;;;;;;5.87;100.00;102326.66;7740936;23;20638;-65
2024/03/17 05:11:48;;;;;;;7.70;4.33;;;;;;;5.86;100.00;102326.72;7719742;23;20308;-66
2024/03/17 05:15:10;;;;;;;6.43;4.47;;;;;;;5.81;100.00;102326.91;7733951;23;20562;-66
2024/03/17 05:18:32;;;;;;;16.87;4.33;;;;;;;5.74;100.00;102332.59;7737017;23;20207;-67
2024/03/17 05:21:56;;;;;;;8.07;3.53;;;;;;;5.67;100.00;102337.38;7732070;23;20444;-67
2024/03/17 05:25:17;;;;;;;6.20;4.10;;;;;;;5.68;100.00;102339.97;7738482;23;20215;-68
2024/03/17 05:28:39;;;;;;;20.67;5.03;;;;;;;5.58;100.00;102352.03;7743867;23;20215;-67
2024/03/17 05:32:02;;;;;;;13.10;4.50;;;;;;;5.71;100.00;102349.66;7725618;23;20245;-67
2024/03/17 05:35:24;;;;;;;8.17;3.93;;;;;;;5.58;100.00;102354.69;7733745;23;20352;-67
2024/03/17 05:38:45;;;;;;;13.43;4.60;;;;;;;5.54;100.00;102357.56;7742257;23;20290;-67
2024/03/17 05:42:07;;;;;;;8.23;4.33;;;;;;;5.53;100.00;102355.81;7736126;23;20210;-67
2024/03/17 05:45:29;;;;;;;13.87;4.90;;;;;;;5.61;100.00;102353.69;7718465;23;20214;-67
2024/03/17 05:48:51;;;;;;;7.83;3.50;;;;;;;5.60;100.00;102365.31;7725943;23;20540;-65
2024/03/17 05:52:11;;;;;;;14.63;3.77;;;;;;;5.71;100.00;102365.72;7730154;23;20446;-65
2024/03/17 05:55:35;;;;;;;7.80;3.27;;;;;;;5.69;100.00;102363.09;7714519;23;20373;-66
2024/03/17 05:58:56;;;;;;;6.87;3.80;;;;;;;5.74;100.00;102368.22;7743676;23;20236;-67
2024/03/17 06:02:19;;;;;;;9.30;3.10;;;;;;;5.86;100.00;102365.03;7730988;22;20215;-67
2024/03/17 06:05:41;;;;;;;12.00;3.73;;;;;;;5.91;100.00;102368.38;7732037;23;20211;-66
2024/03/17 06:09:02;;;;;;;7.53;3.40;;;;;;;5.94;100.00;102376.28;7740591;23;20215;-67
2024/03/17 06:12:26;;;;;;;6.40;3.67;;;;;;;5.71;100.00;102381.75;7733616;23;20450;-67
2024/03/17 06:15:47;;;;;;;6.90;4.93;;;;;;;5.70;100.00;102388.03;7720694;23;20259;-66
2024/03/17 06:19:09;;;;;;;7.63;4.63;;;;;;;5.86;100.00;102380.25;7740585;23;20561;-67
2024/03/17 06:22:30;;;;;;;14.80;5.60;;;;;;;5.97;100.00;102375.25;7732840;23;20211;-67
2024/03/17 06:25:52;;;;;;;11.43;3.83;;;;;;;5.78;100.00;102379.69;7731602;23;20215;-67
2024/03/17 06:29:12;;;;;;;8.30;3.63;;;;;;;5.73;100.00;102376.34;7740694;23;20553;-67
2024/03/17 06:32:33;;;;;;;4.57;3.03;;;;;;;5.99;100.00;102382.28;7728171;23;20215;-66
2024/03/17 06:35:56;;;;;;;17.27;5.00;;;;;;;5.93;100.00;102379.88;7731277;23;20684;-67
2024/03/17 06:39:19;;;;;;;10.70;3.93;;;;;;;5.87;100.00;102384.63;7740126;23;20444;-66
2024/03/17 06:42:40;;;;;;;5.30;3.33;;;;;;;5.93;100.00;102384.34;7714003;23;20211;-67
2024/03/17 06:46:02;;;;;;;7.67;3.97;;;;;;;6.05;100.00;102389.19;7726665;23;20215;-67
2024/03/17 06:49:23;;;;;;;11.07;3.13;;;;;;;5.97;100.00;102388.63;7739579;23;20441;-67
2024/03/17 06:52:45;;;;;;;7.10;3.70;;;;;;;5.98;100.00;102391.25;7733196;23;20227;-66
2024/03/17 06:56:06;;;;;;;7.40;4.20;;;;;;;6.20;100.00;102383.09;7734370;23;20560;-67
2024/03/17 06:59:27;;;;;;;9.13;3.63;;;;;;;6.29;100.00;102388.91;7741331;23;20211;-67
2024/03/17 07:02:50;;;;;;;8.03;3.37;;;;;;;6.40;100.00;102393.75;7726693;23;20222;-67
2024/03/17 07:06:11;;;;;;;9.97;3.33;;;;;;;6.34;100.00;102404.75;7732851;23;20211;-67
2024/03/17 07:09:33;;;;;;;7.47;4.07;;;;;;;6.55;100.00;102406.41;7740274;23;20223;-66
2024/03/17 07:12:54;;;;;;;9.30;3.30;;;;;;;6.56;100.00;102400.13;7733300;23;20489;-67
2024/03/17 07:16:15;;;;;;;7.60;3.00;;;;;;;6.78;100.00;102399.97;7711740;23;20413;-66
2024/03/17 07:19:36;;;;;;;12.17;4.07;;;;;;;6.93;100.00;102404.56;7725666;23;20215;-67
2024/03/17 07:22:57;;;;;;;5.87;3.07;;;;;;;6.97;100.00;102400.78;7731611;23;20207;-67
2024/03/17 07:26:20;;;;;;;6.30;2.90;;;;;;;7.17;100.00;102395.31;7732134;23;20297;-67
2024/03/17 07:29:41;;;;;;;4.03;2.80;;;;;;;7.15;100.00;102398.03;7742970;23;20229;-67
2024/03/17 07:33:02;;;;;;;5.13;3.07;;;;;;;7.09;100.00;102387.63;7731764;23;20542;-68
2024/03/17 07:36:23;;;;;;;5.93;2.87;;;;;;;7.25;100.00;102395.78;7735671;23;20215;-68
2024/03/17 07:39:49;;;;;;;5.07;3.40;;;;;;;7.58;100.00;102387.81;7740905;23;20294;-68
2024/03/17 07:43:11;;;;;;;9.00;2.97;;;;;;;7.53;100.00;102395.25;7737294;23;20219;-67
2024/03/17 07:46:32;;;;;;;6.97;3.83;;;;;;;7.54;100.00;102389.78;7731685;23;20215;-67
2024/03/17 07:49:53;;;;;;;6.83;3.57;;;;;;;7.72;100.00;102393.31;7740950;23;20242;-66
2024/03/17 07:53:14;;;;;;;5.90;4.20;;;;;;;7.87;100.00;102395.19;7741149;23;20219;-66
2024/03/17 07:56:35;;;;;;;4.80;2.97;;;;;;;7.98;100.00;102396.38;7732017;23;20211;-66
2024/03/17 07:59:57;;;;;;;12.17;3.43;;;;;;;7.90;100.00;102405.78;7742117;23;20576;-66
2024/03/17 08:03:18;;;;;;;8.53;3.77;;;;;;;7.86;100.00;102402.38;7732309;23;20211;-66
2024/03/17 08:06:40;;;;;;;4.60;3.13;;;;;;;8.12;100.00;102403.66;7731507;23;20286;-67
2024/03/17 08:10:01;;;;;;;7.20;2.50;;;;;;;8.26;100.00;102395.75;7740244;23;20449;-67
2024/03/17 08:13:23;;;;;;;10.60;3.43;;;;;;;8.34;100.00;102388.16;7740304;23;20294;-67
2024/03/17 08:16:45;;;;;;;4.37;2.10;;;;;;;8.41;100.00;102377.91;7704406;23;20211;-66
2024/03/17 08:20:07;;;;;;;5.30;2.80;;;;;;;8.64;100.00;102383.75;7732768;23;20885;-66
2024/03/17 08:23:28;;;;;;;7.60;3.70;;;;;;;8.69;100.00;102386.19;7737716;23;20211;-65
2024/03/17 08:26:49;;;;;;;7.17;2.93;;;;;;;8.72;100.00;102383.28;7733309;23;20223;-66
2024/03/17 08:30:11;;;;;;;3.33;2.43;;;;;;;8.80;100.00;102392.66;7735589;23;20207;-65
2024/03/17 08:33:35;;;;;;;2.77;2.03;;;;;;;8.72;100.00;102386.84;7735140;23;20270;-67
2024/03/17 08:36:56;;;;;;;14.07;2.83;;;;;;;8.68;100.00;102387.13;7726523;23;20215;-67
2024/03/17 08:40:17;;;;;;;6.83;3.40;;;;;;;8.98;100.00;102387.19;7731778;23;20609;-66
2024/03/17 08:43:40;;;;;;;11.93;5.37;;;;;;;8.89;100.00;102393.13;7736849;23;20207;-72
2024/03/17 08:47:01;;;;;;;7.40;4.40;;;;;;;9.88;100.00;102394.28;7721733;23;20219;-68
2024/03/17 08:50:23;;;;;;;13.87;9.03;;;;;;;10.22;100.00;102381.34;7724488;23;20211;-68
2024/03/17 08:53:44;;;;;;;7.73;3.73;;;;;;;9.62;100.00;102379.72;7737844;23;20215;-66
2024/03/17 08:57:05;;;;;;;8.80;2.60;;;;;;;9.85;100.00;102373.78;7731599;23;20227;-67
2024/03/17 09:00:26;;;;;;;4.97;2.27;;;;;;;9.81;100.00;102376.75;7732835;23;20215;-66
2024/03/17 09:03:49;;;;;;;2.93;1.63;;;;;;;10.45;100.00;102377.19;7732321;23;20215;-67
2024/03/17 09:07:11;;;;;;;5.00;3.87;;;;;;;10.33;100.00;102368.03;7727214;23;20249;-66
2024/03/17 09:10:32;;;;;;;6.60;3.57;;;;;;;10.45;100.00;102374.50;7731950;23;20210;-67
2024/03/17 09:13:54;;;;;;;11.33;4.03;;;;;;;10.67;100.00;102372.13;7726307;23;20233;-66
2024/03/17 09:17:15;;;;;;;9.57;3.80;;;;;;;10.85;100.00;102373.59;7726689;23;20207;-67
2024/03/17 09:20:36;;;;;;;3.70;2.63;;;;;;;10.23;96.80;102371.44;7731229;23;21822;-67
2024/03/17 09:23:59;;;;;;;9.23;3.07;;;;;;;9.75;93.24;102372.63;7719045;23;20211;-67
2024/03/17 09:27:22;;;;;;;4.70;2.50;;;;;;;10.46;95.66;102376.22;7686137;23;20214;-67
2024/03/17 09:30:47;;;;;;;2.90;2.17;;;;;;;10.60;93.78;102376.19;7723883;23;20282;-66
2024/03/17 09:34:08;;;;;;;4.90;2.77;;;;;;;11.03;91.82;102382.34;7739661;23;20218;-67
2024/03/17 09:37:31;;;;;;;22.03;17.53;;;;;;;10.99;90.08;102381.66;7727146;23;20454;-67
2024/03/17 09:40:54;;;;;;;10.67;5.40;;;;;;;10.85;85.66;102379.00;7728189;23;20858;-68
2024/03/17 09:44:15;;;;;;;4.53;2.13;;;;;;;11.25;85.81;102390.72;7740248;23;20215;-67
2024/03/17 09:47:37;;;;;;;5.60;1.60;;;;;;;11.29;84.42;102384.13;7727005;23;20214;-67
2024/03/17 09:51:00;;;;;;;4.73;1.67;;;;;;;11.25;77.72;102382.63;7729262;23;20454;-67
2024/03/17 09:54:22;;;;;;;9.57;1.97;;;;;;;11.84;79.18;102390.22;7738214;23;20227;-66
2024/03/17 09:57:49;;;;;;;4.50;1.83;;;;;;;12.18;75.74;102388.72;7731233;23;20203;-67
2024/03/17 10:01:10;;;;;;;4.17;2.10;;;;;;;11.88;76.26;102396.25;7716991;23;20211;-67
2024/03/17 10:04:34;;;;;;;8.70;2.90;;;;;;;12.70;78.94;102394.75;7719852;23;20222;-67
2024/03/17 10:07:55;;;;;;;5.47;2.30;;;;;;;12.98;75.94;102398.13;7731466;23;20202;-68
2024/03/17 10:11:17;;;;;;;6.00;3.17;;;;;;;12.18;76.15;102398.66;7735495;23;20301;-67
2024/03/17 10:14:40;;;;;;;16.23;4.03;;;;;;;13.53;74.76;102393.88;7740204;23;20214;-68
2024/03/17 10:18:01;;;;;;;10.30;7.17;;;;;;;13.96;73.07;102387.81;7735931;23;20222;-68
2024/03/17 10:21:27;;;;;;;4.50;2.07;;;;;;;13.57;73.79;102389.97;7734824;23;20203;-68
2024/03/17 10:25:00;;;;;;;8.60;5.97;;;;;;;13.12;73.21;102398.84;7741385;23;20212;-67
2024/03/17 10:28:21;;;;;;;10.33;6.30;;;;;;;13.18;74.62;102398.41;7739449;23;20433;-67
2024/03/17 10:31:43;;;;;;;2.10;1.77;;;;;;;13.68;73.33;102399.97;7730580;23;20211;-66
2024/03/17 10:35:24;;;;;;;6.17;2.43;;;;;;;14.54;72.67;102398.47;7736328;23;20223;-67
2024/03/17 10:38:52;;;;;;;4.70;2.30;;;;;;;15.30;67.86;102401.16;7739563;23;20305;-67
2024/03/17 10:42:14;;;;;;;7.80;2.47;;;;;;;19.90;52.20;102394.63;7731785;23;20217;-67
2024/03/17 10:45:38;;;;;;;5.80;2.60;;;;;;;22.67;39.23;102378.41;7732835;23;20231;-68
2024/03/17 10:49:00;;;;;;;5.38;1.90;;;;;;;24.35;34.65;102383.69;7740669;23;20301;-66
2024/03/17 10:52:22;;;;;;;3.30;2.10;;;;;;;24.77;32.28;102381.13;7719314;23;20214;-67
2024/03/17 10:55:45;;;;;;;3.97;2.08;;;;;;;20.84;35.57;102392.78;7735818;23;20207;-68
2024/03/17 10:59:09;;;;;;;4.13;2.70;;;;;;;17.92;42.33;102391.88;7741418;23;20219;-67
2024/03/17 11:02:32;;;;;;;6.85;2.78;;;;;;;17.08;47.01;102392.56;7724123;23;20211;-67
2024/03/17 11:05:54;;;;;;;6.88;2.03;;;;;;;20.99;39.14;102389.22;7728630;23;20215;-68
2024/03/17 11:09:17;;;;;;;5.85;2.80;;;;;;;19.33;38.04;102382.28;7717873;23;20456;-67
2024/03/17 11:12:43;;;;;;;5.60;2.13;;;;;;;17.95;41.62;102391.56;7732860;23;20211;-67
2024/03/17 11:16:04;;;;;;;2.30;1.65;;;;;;;16.87;45.51;102391.81;7723815;23;20219;-67
2024/03/17 11:19:25;;;;;;;2.97;1.77;;;;;;;20.04;40.46;102390.44;7738859;23;20301;-67
2024/03/17 11:22:51;;;;;;;4.22;2.38;;;;;;;18.02;41.29;102396.28;7727425;23;20613;-66
2024/03/17 11:26:11;;;;;;;6.57;2.20;;;;;;;17.47;44.20;102391.59;7731006;23;20464;-67
2024/03/17 11:29:33;;;;;;;4.18;1.83;;;;;;;19.34;41.92;102388.66;7741745;23;20216;-67
2024/03/17 11:32:54;;;;;;;4.25;2.58;;;;;;;20.70;36.26;102388.78;7729987;23;20211;-66
2024/03/17 11:36:33;;;;;;;4.60;1.92;;;;;;;21.56;34.22;102383.88;7732195;23;20219;-67
2024/03/17 11:39:56;;;;;;;4.53;2.53;;;;;;;19.83;37.77;102382.59;7740555;23;20210;-67
2024/03/17 11:43:18;;;;;;;8.13;2.53;;;;;;;19.84;37.94;102376.06;7740430;23;20466;-67
2024/03/17 11:46:37;;;;;;;5.00;1.75;;;;;;;19.91;37.05;102374.44;7727732;23;20207;-67
2024/03/17 11:50:01;;;;;;;5.57;1.85;;;;;;;18.94;37.03;102373.47;7741455;23;20203;-67
2024/03/17 11:53:22;;;;;;;3.70;2.25;;;;;;;21.89;33.70;102363.63;7738868;23;20211;-67
2024/03/17 11:56:43;;;;;;;8.68;2.53;;;;;;;22.93;32.61;102355.06;7733848;23;20215;-68
2024/03/17 12:00:08;;;;;;;9.57;2.10;;;;;;;25.07;30.04;102349.69;7701903;23;20212;-68
2024/03/17 12:03:28;;;;;;;12.38;3.20;;;;;;;25.61;29.33;102350.03;7731763;23;20219;-66
2024/03/17 12:06:50;;;;;;;5.20;2.03;;;;;;;25.86;30.92;102342.16;7734134;23;20215;-67
2024/03/17 12:10:14;;;;;;;6.57;1.92;;;;;;;21.71;32.08;102350.06;7734178;23;20306;-68
2024/03/17 12:13:35;;;;;;;5.75;2.08;;;;;;;20.95;34.50;102356.81;7738574;23;20306;-68
2024/03/17 12:16:58;;;;;;;7.97;2.20;;;;;;;23.98;30.93;102348.75;7719599;23;20203;-68
2024/03/17 12:20:19;;;;;;;2.88;1.83;;;;;;;27.37;27.48;102344.69;7734740;23;20207;-67
2024/03/17 12:23:40;;;;;;;4.05;2.50;;;;;;;28.28;26.03;102346.63;7739168;23;20211;-69
2024/03/17 12:27:05;;;;;;;6.22;2.10;;;;;;;26.60;26.24;102346.06;7728414;23;20557;-68
2024/03/17 12:30:28;;;;;;;4.70;1.77;;;;;;;28.00;26.47;102343.25;7733880;23;20211;-68
2024/03/17 12:33:49;;;;;;;6.70;2.17;;;;;;;23.63;26.98;102350.28;7739978;23;20214;-68
2024/03/17 12:37:17;;;;;;;6.97;2.20;;;;;;;24.44;27.87;102339.28;7731203;23;20211;-67
2024/03/17 12:40:38;;;;;;;7.25;2.42;;;;;;;21.66;28.92;102335.13;7732750;23;20217;-67
2024/03/17 12:43:58;;;;;;;4.78;1.90;;;;;;;22.51;30.98;102334.47;7743807;23;20211;-67
2024/03/17 12:47:22;;;;;;;5.40;1.88;;;;;;;21.38;29.96;102332.72;7727092;23;20211;-66
2024/03/17 12:50:47;;;;;;;5.93;2.05;;;;;;;23.97;29.04;102322.22;7732964;23;20211;-68
2024/03/17 12:54:13;;;;;;;10.75;2.83;;;;;;;20.04;31.26;102314.63;7735088;23;20219;-74
2024/03/17 13:01:14;;;;;;;3.63;2.47;;;;;;;28.14;26.00;102300.53;7724183;23;20207;-74
2024/03/17 13:04:37;;;;;;;6.35;1.80;;;;;;;28.46;25.94;102299.59;7733769;23;20226;-77
2024/03/17 13:07:59;;;;;;;3.47;1.85;;;;;;;28.47;24.47;102287.41;7726213;23;20235;-76
2024/03/17 13:11:20;;;;;;;3.67;1.80;;;;;;;28.77;23.90;102287.75;7665401;23;20204;-77
2024/03/17 13:14:41;;;;;;;4.65;2.20;;;;;;;29.45;22.80;102288.81;7696326;23;20224;-75
2024/03/17 13:18:03;;;;;;;5.53;2.55;;;;;;;27.91;23.91;102290.97;7679942;23;20211;-76
2024/03/17 13:21:26;;;;;;;3.63;1.77;;;;;;;27.99;23.88;102274.13;7690554;23;20212;-76
2024/03/17 13:24:47;;;;;;;5.90;2.60;;;;;;;26.01;26.23;102271.88;7695406;23;20453;-76
2024/03/17 13:28:08;;;;;;;5.00;2.60;;;;;;;26.63;25.88;102265.41;7690532;23;20224;-76
2024/03/17 13:31:29;;;;;;;8.77;2.20;;;;;;;27.49;25.43;102264.56;7689847;23;20223;-73
2024/03/17 13:34:51;;;;;;;3.13;1.95;;;;;;;26.87;25.29;102262.97;7696880;23;20910;-76
2024/03/17 13:38:13;;;;;;;3.28;2.38;;;;;;;25.97;26.06;102262.28;7689107;23;20207;-76
2024/03/17 13:41:34;;;;;;;6.80;2.40;;;;;;;26.52;26.33;102271.53;7697918;23;20199;-76
2024/03/17 13:44:56;;;;;;;4.78;2.35;;;;;;;27.01;26.24;102269.41;7707919;23;20216;-75
2024/03/17 13:48:17;;;;;;;5.93;2.10;;;;;;;26.82;26.15;102264.66;7701815;23;20229;-76
2024/03/17 13:51:38;;;;;;;6.10;2.90;;;;;;;26.69;25.18;102267.34;7685482;23;20219;-76
2024/03/17 13:55:00;;;;;;;9.05;2.50;;;;;;;25.00;26.97;102265.94;7710461;23;20291;-77
2024/03/17 13:58:21;;;;;;;3.25;1.83;;;;;;;25.58;25.47;102256.50;7718463;23;20227;-75
2024/03/17 14:01:46;;;;;;;8.68;2.00;;;;;;;26.50;26.20;102257.91;7701498;23;20211;-76
2024/03/17 14:05:08;;;;;;;3.97;2.22;;;;;;;26.42;25.89;102254.47;7680862;23;20563;-76
2024/03/17 14:08:29;;;;;;;6.95;2.45;;;;;;;22.57;30.08;102265.00;7693493;23;20203;-76
2024/03/17 14:11:52;;;;;;;5.30;2.53;;;;;;;20.85;33.56;102268.38;7738373;23;20215;-75
2024/03/17 14:15:15;;;;;;;6.10;2.15;;;;;;;18.97;34.92;102252.06;7729396;23;20244;-74
2024/03/17 14:18:36;;;;;;;10.45;3.25;;;;;;;17.77;37.84;102252.34;7740153;23;20211;-74
2024/03/17 14:21:59;;;;;;;4.18;1.88;;;;;;;17.42;40.60;102250.22;7734591;23;20245;-75
2024/03/17 14:25:21;;;;;;;5.68;1.95;;;;;;;16.81;39.52;102248.00;7730771;23;20219;-76
2024/03/17 14:28:43;;;;;;;6.03;2.15;;;;;;;16.64;39.43;102244.13;7733810;23;20207;-76
2024/03/17 14:32:06;;;;;;;5.70;2.00;;;;;;;17.09;39.55;102234.38;7725211;23;20573;-75
2024/03/17 14:35:27;;;;;;;5.97;3.13;;;;;;;17.24;40.75;102229.31;7708234;23;20507;-69
2024/03/17 14:38:48;;;;;;;5.72;2.25;;;;;;;16.14;39.77;102229.69;7738223;23;20821;-69
2024/03/17 14:42:10;;;;;;;5.85;2.38;;;;;;;15.95;42.87;102225.03;7731496;23;20251;-69
2024/03/17 14:45:34;;;;;;;6.65;2.97;;;;;;;16.06;42.04;102228.66;7725272;23;20211;-69
2024/03/17 14:48:55;;;;;;;5.85;2.28;;;;;;;16.42;40.64;102228.00;7734732;23;20294;-68
2024/03/17 14:52:26;;;;;;;3.80;1.90;;;;;;;15.94;41.05;102230.59;7728582;23;20219;-68
2024/03/17 14:55:47;;;;;;;3.78;2.50;;;;;;;16.95;39.52;102218.47;7732431;23;20215;-69
2024/03/17 14:59:08;;;;;;;6.53;2.50;;;;;;;17.19;39.48;102216.13;7717739;23;20211;-69
2024/03/17 15:02:30;;;;;;;5.85;2.25;;;;;;;18.67;38.22;102214.22;7722696;23;20214;-68
2024/03/17 15:05:51;;;;;;;4.82;2.35;;;;;;;19.81;37.51;102220.38;7730482;23;20565;-69
2024/03/17 15:09:13;;;;;;;4.35;2.53;;;;;;;19.79;37.64;102225.16;7739634;23;20453;-69
2024/03/17 15:12:34;;;;;;;11.60;10.00;;;;;;;19.34;36.98;102216.34;7732291;23;20216;-69
2024/03/17 15:15:55;;;;;;;5.82;2.00;;;;;;;18.72;38.61;102228.25;7729583;23;20241;-69
2024/03/17 15:19:17;;;;;;;7.93;2.10;;;;;;;18.62;38.78;102230.19;7738416;23;20627;-70
2024/03/17 15:22:38;;;;;;;3.85;3.22;;;;;;;18.57;38.93;102224.31;7731292;23;20219;-68
2024/03/17 15:26:01;;;;;;;4.68;2.60;;;;;;;17.75;40.70;102235.25;7731037;23;20500;-68
2024/03/17 15:29:22;;;;;;;3.20;2.22;;;;;;;16.93;42.12;102233.22;7737816;23;20219;-69
2024/03/17 15:32:43;;;;;;;8.50;2.75;;;;;;;17.16;43.35;102221.88;7727128;23;20279;-69
2024/03/17 15:36:07;;;;;;;4.22;2.53;;;;;;;16.47;44.70;102226.59;7729063;23;20223;-68
2024/03/17 15:39:29;;;;;;;3.05;1.60;;;;;;;16.18;45.20;102235.69;7741773;23;20557;-68